sensor_id;sensor_type;location;lat;lon;timestamp;P1;durP1;ratioP1;P2;durP2;ratioP2
37859;SDS011;23698;52.014;5.190;2023-04-25T00:00:17;21.50;;;4.80;;
37859;SDS011;23698;52.014;5.190;2023-04-25T00:03:04;15.38;;;4.32;;
37859;SDS011;23698;52.014;5.190;2023-04-25T00:05:53;21.38;;;4.80;;
37859;SDS011;23698;52.014;5.190;2023-04-25T00:08:41;19.88;;;5.20;;
37859;SDS011;23698;52.014;5.190;2023-04-25T00:11:27;25.52;;;5.00;;
37859;SDS011;23698;52.014;5.190;2023-04-25T00:14:15;27.27;;;5.30;;
37859;SDS011;23698;52.014;5.190;2023-04-25T00:17:02;16.60;;;4.70;;
37859;SDS011;23698;52.014;5.190;2023-04-25T00:19:49;21.20;;;5.22;;
37859;SDS011;23698;52.014;5.190;2023-04-25T00:22:37;23.30;;;4.78;;
37859;SDS011;23698;52.014;5.190;2023-04-25T00:25:23;24.83;;;4.78;;
37859;SDS011;23698;52.014;5.190;2023-04-25T00:28:09;26.38;;;5.28;;
37859;SDS011;23698;52.014;5.190;2023-04-25T00:30:55;19.95;;;4.85;;
37859;SDS011;23698;52.014;5.190;2023-04-25T00:33:42;14.85;;;4.80;;
37859;SDS011;23698;52.014;5.190;2023-04-25T00:36:29;25.45;;;4.72;;
37859;SDS011;23698;52.014;5.190;2023-04-25T00:39:17;22.23;;;4.65;;
37859;SDS011;23698;52.014;5.190;2023-04-25T00:42:03;17.52;;;4.03;;
37859;SDS011;23698;52.014;5.190;2023-04-25T00:44:49;20.52;;;4.13;;
37859;SDS011;23698;52.014;5.190;2023-04-25T00:47:36;16.73;;;4.05;;
37859;SDS011;23698;52.014;5.190;2023-04-25T00:50:23;15.38;;;3.78;;
37859;SDS011;23698;52.014;5.190;2023-04-25T00:53:10;19.73;;;3.90;;
37859;SDS011;23698;52.014;5.190;2023-04-25T00:55:57;18.38;;;3.80;;
37859;SDS011;23698;52.014;5.190;2023-04-25T00:58:44;13.55;;;3.80;;
37859;SDS011;23698;52.014;5.190;2023-04-25T01:01:31;11.57;;;3.03;;
37859;SDS011;23698;52.014;5.190;2023-04-25T01:04:17;12.95;;;3.60;;
37859;SDS011;23698;52.014;5.190;2023-04-25T01:07:05;14.80;;;4.05;;
37859;SDS011;23698;52.014;5.190;2023-04-25T01:09:52;22.58;;;3.65;;
37859;SDS011;23698;52.014;5.190;2023-04-25T01:12:40;19.17;;;3.63;;
37859;SDS011;23698;52.014;5.190;2023-04-25T01:15:27;12.32;;;3.88;;
37859;SDS011;23698;52.014;5.190;2023-04-25T01:18:13;16.17;;;4.00;;
37859;SDS011;23698;52.014;5.190;2023-04-25T01:21:08;19.50;;;4.80;;
37859;SDS011;23698;52.014;5.190;2023-04-25T01:23:56;9.45;;;3.63;;
37859;SDS011;23698;52.014;5.190;2023-04-25T01:26:44;15.90;;;4.10;;
37859;SDS011;23698;52.014;5.190;2023-04-25T01:29:38;16.60;;;4.10;;
37859;SDS011;23698;52.014;5.190;2023-04-25T01:32:25;20.67;;;4.20;;
37859;SDS011;23698;52.014;5.190;2023-04-25T01:35:12;19.40;;;4.15;;
37859;SDS011;23698;52.014;5.190;2023-04-25T01:38:00;14.05;;;4.28;;
37859;SDS011;23698;52.014;5.190;2023-04-25T01:40:47;24.23;;;4.07;;
37859;SDS011;23698;52.014;5.190;2023-04-25T01:43:37;16.13;;;3.85;;
37859;SDS011;23698;52.014;5.190;2023-04-25T01:46:23;16.85;;;4.50;;
37859;SDS011;23698;52.014;5.190;2023-04-25T01:49:10;13.50;;;4.55;;
37859;SDS011;23698;52.014;5.190;2023-04-25T01:51:58;19.73;;;5.10;;
37859;SDS011;23698;52.014;5.190;2023-04-25T01:54:45;21.50;;;4.60;;
37859;SDS011;23698;52.014;5.190;2023-04-25T01:57:33;21.08;;;4.78;;
37859;SDS011;23698;52.014;5.190;2023-04-25T02:00:20;27.52;;;6.05;;
37859;SDS011;23698;52.014;5.190;2023-04-25T02:03:06;24.17;;;4.55;;
37859;SDS011;23698;52.014;5.190;2023-04-25T02:05:53;18.02;;;4.50;;
37859;SDS011;23698;52.014;5.190;2023-04-25T02:08:40;14.88;;;3.92;;
37859;SDS011;23698;52.014;5.190;2023-04-25T02:11:30;17.40;;;4.43;;
37859;SDS011;23698;52.014;5.190;2023-04-25T02:14:38;18.75;;;5.25;;
37859;SDS011;23698;52.014;5.190;2023-04-25T02:17:33;15.70;;;4.63;;
37859;SDS011;23698;52.014;5.190;2023-04-25T02:20:20;14.77;;;4.57;;
37859;SDS011;23698;52.014;5.190;2023-04-25T02:23:06;20.38;;;4.22;;
37859;SDS011;23698;52.014;5.190;2023-04-25T02:25:53;25.10;;;5.20;;
37859;SDS011;23698;52.014;5.190;2023-04-25T02:28:41;17.15;;;4.07;;
37859;SDS011;23698;52.014;5.190;2023-04-25T02:31:27;17.98;;;5.00;;
37859;SDS011;23698;52.014;5.190;2023-04-25T02:34:15;23.50;;;5.55;;
37859;SDS011;23698;52.014;5.190;2023-04-25T02:37:01;21.63;;;5.13;;
37859;SDS011;23698;52.014;5.190;2023-04-25T02:39:47;28.40;;;6.05;;
37859;SDS011;23698;52.014;5.190;2023-04-25T02:42:34;18.08;;;5.70;;
37859;SDS011;23698;52.014;5.190;2023-04-25T02:45:22;20.80;;;6.22;;
37859;SDS011;23698;52.014;5.190;2023-04-25T02:48:08;18.08;;;6.75;;
37859;SDS011;23698;52.014;5.190;2023-04-25T02:50:54;22.65;;;6.15;;
37859;SDS011;23698;52.014;5.190;2023-04-25T02:53:41;23.27;;;6.68;;
37859;SDS011;23698;52.014;5.190;2023-04-25T02:56:27;29.00;;;7.03;;
37859;SDS011;23698;52.014;5.190;2023-04-25T02:59:14;24.92;;;6.32;;
37859;SDS011;23698;52.014;5.190;2023-04-25T03:02:02;23.52;;;6.53;;
37859;SDS011;23698;52.014;5.190;2023-04-25T03:04:48;24.05;;;6.75;;
37859;SDS011;23698;52.014;5.190;2023-04-25T03:07:35;25.13;;;7.13;;
37859;SDS011;23698;52.014;5.190;2023-04-25T03:10:21;22.10;;;6.25;;
37859;SDS011;23698;52.014;5.190;2023-04-25T03:13:07;20.90;;;6.70;;
37859;SDS011;23698;52.014;5.190;2023-04-25T03:15:54;29.30;;;5.90;;
37859;SDS011;23698;52.014;5.190;2023-04-25T03:18:41;20.85;;;5.90;;
37859;SDS011;23698;52.014;5.190;2023-04-25T03:21:28;20.65;;;6.45;;
37859;SDS011;23698;52.014;5.190;2023-04-25T03:24:15;18.50;;;5.60;;
37859;SDS011;23698;52.014;5.190;2023-04-25T03:27:01;21.33;;;5.90;;
37859;SDS011;23698;52.014;5.190;2023-04-25T03:29:48;23.45;;;6.10;;
37859;SDS011;23698;52.014;5.190;2023-04-25T03:32:34;23.15;;;5.65;;
37859;SDS011;23698;52.014;5.190;2023-04-25T03:35:22;21.50;;;6.03;;
37859;SDS011;23698;52.014;5.190;2023-04-25T03:38:10;19.38;;;5.15;;
37859;SDS011;23698;52.014;5.190;2023-04-25T03:40:57;14.98;;;4.10;;
37859;SDS011;23698;52.014;5.190;2023-04-25T03:44:05;14.13;;;2.90;;
37859;SDS011;23698;52.014;5.190;2023-04-25T03:46:52;10.05;;;3.60;;
37859;SDS011;23698;52.014;5.190;2023-04-25T03:49:38;10.02;;;3.03;;
37859;SDS011;23698;52.014;5.190;2023-04-25T03:52:27;8.23;;;2.05;;
37859;SDS011;23698;52.014;5.190;2023-04-25T03:55:13;8.77;;;1.75;;
37859;SDS011;23698;52.014;5.190;2023-04-25T03:58:00;13.13;;;2.20;;
37859;SDS011;23698;52.014;5.190;2023-04-25T04:00:46;5.57;;;2.03;;
37859;SDS011;23698;52.014;5.190;2023-04-25T04:03:33;8.00;;;1.92;;
37859;SDS011;23698;52.014;5.190;2023-04-25T04:06:20;6.50;;;2.17;;
37859;SDS011;23698;52.014;5.190;2023-04-25T04:09:13;10.07;;;2.33;;
37859;SDS011;23698;52.014;5.190;2023-04-25T04:12:01;10.02;;;1.90;;
37859;SDS011;23698;52.014;5.190;2023-04-25T04:14:49;7.07;;;2.03;;
37859;SDS011;23698;52.014;5.190;2023-04-25T04:17:36;8.27;;;2.70;;
37859;SDS011;23698;52.014;5.190;2023-04-25T04:20:23;8.63;;;2.35;;
37859;SDS011;23698;52.014;5.190;2023-04-25T04:23:09;9.30;;;2.72;;
37859;SDS011;23698;52.014;5.190;2023-04-25T04:25:58;8.90;;;2.67;;
37859;SDS011;23698;52.014;5.190;2023-04-25T04:29:23;7.80;;;2.20;;
37859;SDS011;23698;52.014;5.190;2023-04-25T04:32:24;9.02;;;2.28;;
37859;SDS011;23698;52.014;5.190;2023-04-25T04:35:12;6.63;;;2.10;;
37859;SDS011;23698;52.014;5.190;2023-04-25T04:37:59;14.70;;;2.72;;
37859;SDS011;23698;52.014;5.190;2023-04-25T04:40:50;9.80;;;2.00;;
37859;SDS011;23698;52.014;5.190;2023-04-25T04:43:44;7.28;;;1.90;;
37859;SDS011;23698;52.014;5.190;2023-04-25T04:46:46;8.07;;;1.88;;
37859;SDS011;23698;52.014;5.190;2023-04-25T04:49:50;7.88;;;2.80;;
37859;SDS011;23698;52.014;5.190;2023-04-25T04:53:10;10.65;;;2.67;;
37859;SDS011;23698;52.014;5.190;2023-04-25T04:56:15;10.82;;;3.47;;
37859;SDS011;23698;52.014;5.190;2023-04-25T04:59:30;8.68;;;2.50;;
37859;SDS011;23698;52.014;5.190;2023-04-25T05:02:25;9.52;;;3.40;;
37859;SDS011;23698;52.014;5.190;2023-04-25T05:05:28;21.05;;;7.97;;
37859;SDS011;23698;52.014;5.190;2023-04-25T05:08:53;9.25;;;2.25;;
37859;SDS011;23698;52.014;5.190;2023-04-25T05:12:00;9.63;;;2.08;;
37859;SDS011;23698;52.014;5.190;2023-04-25T05:15:04;5.43;;;1.77;;
37859;SDS011;23698;52.014;5.190;2023-04-25T05:18:08;13.68;;;2.13;;
37859;SDS011;23698;52.014;5.190;2023-04-25T05:21:15;13.77;;;4.55;;
37859;SDS011;23698;52.014;5.190;2023-04-25T05:24:27;12.80;;;2.47;;
37859;SDS011;23698;52.014;5.190;2023-04-25T05:27:28;14.65;;;2.50;;
37859;SDS011;23698;52.014;5.190;2023-04-25T05:30:46;11.45;;;2.40;;
37859;SDS011;23698;52.014;5.190;2023-04-25T05:33:52;11.55;;;2.00;;
37859;SDS011;23698;52.014;5.190;2023-04-25T05:36:40;6.20;;;1.80;;
37859;SDS011;23698;52.014;5.190;2023-04-25T05:39:26;12.05;;;1.98;;
37859;SDS011;23698;52.014;5.190;2023-04-25T05:42:33;11.32;;;2.10;;
37859;SDS011;23698;52.014;5.190;2023-04-25T05:45:39;6.35;;;1.90;;
37859;SDS011;23698;52.014;5.190;2023-04-25T05:48:46;9.98;;;2.47;;
37859;SDS011;23698;52.014;5.190;2023-04-25T05:51:50;11.65;;;1.70;;
37859;SDS011;23698;52.014;5.190;2023-04-25T05:55:07;14.27;;;2.50;;
37859;SDS011;23698;52.014;5.190;2023-04-25T05:57:54;10.00;;;2.08;;
37859;SDS011;23698;52.014;5.190;2023-04-25T06:00:41;8.07;;;1.60;;
37859;SDS011;23698;52.014;5.190;2023-04-25T06:03:27;7.85;;;2.33;;
37859;SDS011;23698;52.014;5.190;2023-04-25T06:06:17;11.38;;;2.47;;
37859;SDS011;23698;52.014;5.190;2023-04-25T06:09:04;12.77;;;2.33;;
37859;SDS011;23698;52.014;5.190;2023-04-25T06:11:50;8.02;;;1.73;;
37859;SDS011;23698;52.014;5.190;2023-04-25T06:14:36;7.13;;;2.63;;
37859;SDS011;23698;52.014;5.190;2023-04-25T06:17:23;10.32;;;2.50;;
37859;SDS011;23698;52.014;5.190;2023-04-25T06:20:10;10.60;;;2.10;;
37859;SDS011;23698;52.014;5.190;2023-04-25T06:22:59;10.80;;;2.80;;
37859;SDS011;23698;52.014;5.190;2023-04-25T06:26:08;16.52;;;1.80;;
37859;SDS011;23698;52.014;5.190;2023-04-25T06:28:57;8.27;;;1.92;;
37859;SDS011;23698;52.014;5.190;2023-04-25T06:31:43;15.38;;;2.30;;
37859;SDS011;23698;52.014;5.190;2023-04-25T06:34:30;10.00;;;1.83;;
37859;SDS011;23698;52.014;5.190;2023-04-25T06:37:17;6.75;;;1.75;;
37859;SDS011;23698;52.014;5.190;2023-04-25T06:40:05;9.65;;;1.92;;
37859;SDS011;23698;52.014;5.190;2023-04-25T06:42:52;10.40;;;1.70;;
37859;SDS011;23698;52.014;5.190;2023-04-25T06:46:08;9.52;;;1.85;;
37859;SDS011;23698;52.014;5.190;2023-04-25T06:49:00;9.32;;;1.80;;
37859;SDS011;23698;52.014;5.190;2023-04-25T06:51:46;17.00;;;2.20;;
37859;SDS011;23698;52.014;5.190;2023-04-25T06:54:33;14.73;;;2.58;;
37859;SDS011;23698;52.014;5.190;2023-04-25T06:57:31;8.63;;;1.90;;
37859;SDS011;23698;52.014;5.190;2023-04-25T07:00:32;10.80;;;2.55;;
37859;SDS011;23698;52.014;5.190;2023-04-25T07:03:21;13.43;;;2.83;;
37859;SDS011;23698;52.014;5.190;2023-04-25T07:06:16;6.95;;;1.75;;
37859;SDS011;23698;52.014;5.190;2023-04-25T07:09:06;10.13;;;1.48;;
37859;SDS011;23698;52.014;5.190;2023-04-25T07:11:55;10.32;;;1.80;;
37859;SDS011;23698;52.014;5.190;2023-04-25T07:14:47;11.00;;;2.10;;
37859;SDS011;23698;52.014;5.190;2023-04-25T07:17:34;17.95;;;1.88;;
37859;SDS011;23698;52.014;5.190;2023-04-25T07:20:30;14.10;;;1.92;;
37859;SDS011;23698;52.014;5.190;2023-04-25T07:23:18;8.57;;;2.08;;
37859;SDS011;23698;52.014;5.190;2023-04-25T07:26:05;10.57;;;1.40;;
37859;SDS011;23698;52.014;5.190;2023-04-25T07:28:51;8.18;;;1.65;;
37859;SDS011;23698;52.014;5.190;2023-04-25T07:31:40;13.77;;;2.00;;
37859;SDS011;23698;52.014;5.190;2023-04-25T07:34:27;8.07;;;1.33;;
37859;SDS011;23698;52.014;5.190;2023-04-25T07:37:15;10.60;;;1.73;;
37859;SDS011;23698;52.014;5.190;2023-04-25T07:40:17;11.50;;;1.73;;
37859;SDS011;23698;52.014;5.190;2023-04-25T07:43:08;10.15;;;1.65;;
37859;SDS011;23698;52.014;5.190;2023-04-25T07:46:04;8.13;;;1.42;;
37859;SDS011;23698;52.014;5.190;2023-04-25T07:48:53;14.23;;;1.95;;
37859;SDS011;23698;52.014;5.190;2023-04-25T07:51:40;13.95;;;2.33;;
37859;SDS011;23698;52.014;5.190;2023-04-25T07:54:30;12.05;;;1.73;;
37859;SDS011;23698;52.014;5.190;2023-04-25T07:57:23;17.40;;;2.67;;
37859;SDS011;23698;52.014;5.190;2023-04-25T08:00:12;22.42;;;6.57;;
37859;SDS011;23698;52.014;5.190;2023-04-25T08:03:05;6.95;;;1.85;;
37859;SDS011;23698;52.014;5.190;2023-04-25T08:05:53;12.55;;;2.08;;
37859;SDS011;23698;52.014;5.190;2023-04-25T08:08:42;4.28;;;1.35;;
37859;SDS011;23698;52.014;5.190;2023-04-25T08:11:31;6.13;;;1.67;;
37859;SDS011;23698;52.014;5.190;2023-04-25T08:14:17;8.93;;;2.13;;
37859;SDS011;23698;52.014;5.190;2023-04-25T08:17:05;6.78;;;1.40;;
37859;SDS011;23698;52.014;5.190;2023-04-25T08:19:57;8.63;;;1.35;;
37859;SDS011;23698;52.014;5.190;2023-04-25T08:22:48;12.23;;;1.47;;
37859;SDS011;23698;52.014;5.190;2023-04-25T08:26:01;8.68;;;1.08;;
37859;SDS011;23698;52.014;5.190;2023-04-25T08:28:52;8.85;;;1.20;;
37859;SDS011;23698;52.014;5.190;2023-04-25T08:31:40;5.00;;;1.27;;
37859;SDS011;23698;52.014;5.190;2023-04-25T08:34:27;6.75;;;1.42;;
37859;SDS011;23698;52.014;5.190;2023-04-25T08:37:16;5.38;;;1.05;;
37859;SDS011;23698;52.014;5.190;2023-04-25T08:40:13;7.57;;;1.00;;
37859;SDS011;23698;52.014;5.190;2023-04-25T08:43:12;6.38;;;1.45;;
37859;SDS011;23698;52.014;5.190;2023-04-25T08:46:00;6.70;;;1.52;;
37859;SDS011;23698;52.014;5.190;2023-04-25T08:49:01;8.85;;;1.60;;
37859;SDS011;23698;52.014;5.190;2023-04-25T08:51:48;7.97;;;1.85;;
37859;SDS011;23698;52.014;5.190;2023-04-25T08:54:41;8.50;;;1.45;;
37859;SDS011;23698;52.014;5.190;2023-04-25T08:57:31;12.07;;;1.95;;
37859;SDS011;23698;52.014;5.190;2023-04-25T09:00:20;7.88;;;1.30;;
37859;SDS011;23698;52.014;5.190;2023-04-25T09:03:07;10.05;;;1.33;;
37859;SDS011;23698;52.014;5.190;2023-04-25T09:05:55;7.97;;;1.42;;
37859;SDS011;23698;52.014;5.190;2023-04-25T09:08:41;6.07;;;1.40;;
37859;SDS011;23698;52.014;5.190;2023-04-25T09:11:27;7.35;;;1.80;;
37859;SDS011;23698;52.014;5.190;2023-04-25T09:14:18;8.80;;;1.30;;
37859;SDS011;23698;52.014;5.190;2023-04-25T09:17:32;11.75;;;1.98;;
37859;SDS011;23698;52.014;5.190;2023-04-25T09:20:18;7.47;;;1.70;;
37859;SDS011;23698;52.014;5.190;2023-04-25T09:23:05;11.32;;;1.60;;
37859;SDS011;23698;52.014;5.190;2023-04-25T09:25:54;6.55;;;1.83;;
37859;SDS011;23698;52.014;5.190;2023-04-25T09:28:41;6.22;;;0.98;;
37859;SDS011;23698;52.014;5.190;2023-04-25T09:31:29;6.55;;;1.08;;
37859;SDS011;23698;52.014;5.190;2023-04-25T09:34:19;6.28;;;0.98;;
37859;SDS011;23698;52.014;5.190;2023-04-25T09:37:12;6.40;;;0.95;;
37859;SDS011;23698;52.014;5.190;2023-04-25T09:40:30;4.50;;;0.65;;
37859;SDS011;23698;52.014;5.190;2023-04-25T09:43:27;3.20;;;0.90;;
37859;SDS011;23698;52.014;5.190;2023-04-25T09:46:14;4.18;;;0.85;;
37859;SDS011;23698;52.014;5.190;2023-04-25T09:49:08;4.43;;;0.80;;
37859;SDS011;23698;52.014;5.190;2023-04-25T09:52:14;5.20;;;1.50;;
37859;SDS011;23698;52.014;5.190;2023-04-25T09:55:32;10.77;;;2.35;;
37859;SDS011;23698;52.014;5.190;2023-04-25T09:58:21;3.75;;;1.10;;
37859;SDS011;23698;52.014;5.190;2023-04-25T10:01:10;8.85;;;1.13;;
37859;SDS011;23698;52.014;5.190;2023-04-25T10:04:12;6.35;;;1.45;;
37859;SDS011;23698;52.014;5.190;2023-04-25T10:07:13;6.80;;;1.17;;
37859;SDS011;23698;52.014;5.190;2023-04-25T10:10:03;4.35;;;1.65;;
37859;SDS011;23698;52.014;5.190;2023-04-25T10:12:50;4.53;;;1.25;;
37859;SDS011;23698;52.014;5.190;2023-04-25T10:15:37;3.95;;;0.80;;
37859;SDS011;23698;52.014;5.190;2023-04-25T10:18:25;4.53;;;1.00;;
37859;SDS011;23698;52.014;5.190;2023-04-25T10:21:13;6.03;;;0.85;;
37859;SDS011;23698;52.014;5.190;2023-04-25T10:24:01;5.82;;;0.90;;
37859;SDS011;23698;52.014;5.190;2023-04-25T10:26:48;3.90;;;0.90;;
37859;SDS011;23698;52.014;5.190;2023-04-25T10:29:35;4.63;;;0.90;;
37859;SDS011;23698;52.014;5.190;2023-04-25T10:32:21;3.60;;;0.80;;
37859;SDS011;23698;52.014;5.190;2023-04-25T10:35:11;3.95;;;0.77;;
37859;SDS011;23698;52.014;5.190;2023-04-25T10:38:02;5.35;;;0.93;;
37859;SDS011;23698;52.014;5.190;2023-04-25T10:41:02;4.43;;;1.45;;
37859;SDS011;23698;52.014;5.190;2023-04-25T10:43:50;9.25;;;1.08;;
37859;SDS011;23698;52.014;5.190;2023-04-25T10:46:46;3.95;;;0.80;;
37859;SDS011;23698;52.014;5.190;2023-04-25T10:49:33;6.95;;;0.98;;
37859;SDS011;23698;52.014;5.190;2023-04-25T10:52:25;7.00;;;1.15;;
37859;SDS011;23698;52.014;5.190;2023-04-25T10:55:14;6.13;;;0.90;;
37859;SDS011;23698;52.014;5.190;2023-04-25T10:58:01;4.88;;;0.90;;
37859;SDS011;23698;52.014;5.190;2023-04-25T11:00:48;5.35;;;0.90;;
37859;SDS011;23698;52.014;5.190;2023-04-25T11:03:41;3.72;;;1.08;;
37859;SDS011;23698;52.014;5.190;2023-04-25T11:06:31;7.93;;;1.55;;
37859;SDS011;23698;52.014;5.190;2023-04-25T11:09:28;3.88;;;0.70;;
37859;SDS011;23698;52.014;5.190;2023-04-25T11:12:16;5.70;;;1.48;;
37859;SDS011;23698;52.014;5.190;2023-04-25T11:15:03;6.80;;;1.20;;
37859;SDS011;23698;52.014;5.190;2023-04-25T11:17:51;7.15;;;1.58;;
37859;SDS011;23698;52.014;5.190;2023-04-25T11:20:38;4.82;;;1.27;;
37859;SDS011;23698;52.014;5.190;2023-04-25T11:23:24;4.05;;;1.23;;
37859;SDS011;23698;52.014;5.190;2023-04-25T11:26:12;3.35;;;1.23;;
37859;SDS011;23698;52.014;5.190;2023-04-25T11:29:00;5.30;;;1.63;;
37859;SDS011;23698;52.014;5.190;2023-04-25T11:31:46;6.68;;;1.25;;
37859;SDS011;23698;52.014;5.190;2023-04-25T11:34:33;5.13;;;1.05;;
37859;SDS011;23698;52.014;5.190;2023-04-25T11:37:19;5.18;;;1.13;;
37859;SDS011;23698;52.014;5.190;2023-04-25T11:40:06;5.38;;;1.17;;
37859;SDS011;23698;52.014;5.190;2023-04-25T11:42:54;3.45;;;0.80;;
37859;SDS011;23698;52.014;5.190;2023-04-25T11:45:42;5.22;;;0.80;;
37859;SDS011;23698;52.014;5.190;2023-04-25T11:48:36;5.60;;;1.02;;
37859;SDS011;23698;52.014;5.190;2023-04-25T11:51:23;4.93;;;1.10;;
37859;SDS011;23698;52.014;5.190;2023-04-25T11:54:10;4.38;;;1.08;;
37859;SDS011;23698;52.014;5.190;2023-04-25T11:56:56;7.60;;;1.65;;
37859;SDS011;23698;52.014;5.190;2023-04-25T11:59:43;6.97;;;1.08;;
37859;SDS011;23698;52.014;5.190;2023-04-25T12:02:31;4.55;;;0.95;;
37859;SDS011;23698;52.014;5.190;2023-04-25T12:05:23;8.20;;;1.58;;
37859;SDS011;23698;52.014;5.190;2023-04-25T12:08:17;4.95;;;1.00;;
37859;SDS011;23698;52.014;5.190;2023-04-25T12:11:03;4.22;;;1.20;;
37859;SDS011;23698;52.014;5.190;2023-04-25T12:13:51;5.57;;;0.90;;
37859;SDS011;23698;52.014;5.190;2023-04-25T12:16:41;5.38;;;1.48;;
37859;SDS011;23698;52.014;5.190;2023-04-25T12:19:33;9.57;;;1.40;;
37859;SDS011;23698;52.014;5.190;2023-04-25T12:22:20;7.25;;;1.27;;
37859;SDS011;23698;52.014;5.190;2023-04-25T12:25:08;5.32;;;1.77;;
37859;SDS011;23698;52.014;5.190;2023-04-25T12:27:55;4.78;;;1.48;;
37859;SDS011;23698;52.014;5.190;2023-04-25T12:30:56;3.67;;;1.13;;
37859;SDS011;23698;52.014;5.190;2023-04-25T12:33:43;4.30;;;0.73;;
37859;SDS011;23698;52.014;5.190;2023-04-25T12:36:34;7.25;;;1.10;;
37859;SDS011;23698;52.014;5.190;2023-04-25T12:39:21;5.93;;;1.00;;
37859;SDS011;23698;52.014;5.190;2023-04-25T12:42:08;4.35;;;1.40;;
37859;SDS011;23698;52.014;5.190;2023-04-25T12:44:57;6.95;;;1.10;;
37859;SDS011;23698;52.014;5.190;2023-04-25T12:47:44;5.68;;;1.52;;
37859;SDS011;23698;52.014;5.190;2023-04-25T12:50:30;5.80;;;1.33;;
37859;SDS011;23698;52.014;5.190;2023-04-25T12:53:18;6.50;;;0.98;;
37859;SDS011;23698;52.014;5.190;2023-04-25T12:56:05;6.07;;;1.05;;
37859;SDS011;23698;52.014;5.190;2023-04-25T12:58:52;4.22;;;1.10;;
37859;SDS011;23698;52.014;5.190;2023-04-25T13:01:39;9.65;;;1.60;;
37859;SDS011;23698;52.014;5.190;2023-04-25T13:04:25;4.93;;;0.90;;
37859;SDS011;23698;52.014;5.190;2023-04-25T13:07:12;7.88;;;1.45;;
37859;SDS011;23698;52.014;5.190;2023-04-25T13:09:59;12.95;;;2.13;;
37859;SDS011;23698;52.014;5.190;2023-04-25T13:12:47;5.32;;;1.35;;
37859;SDS011;23698;52.014;5.190;2023-04-25T13:15:34;8.00;;;1.63;;
37859;SDS011;23698;52.014;5.190;2023-04-25T13:18:20;4.72;;;1.38;;
37859;SDS011;23698;52.014;5.190;2023-04-25T13:21:11;3.83;;;1.15;;
37859;SDS011;23698;52.014;5.190;2023-04-25T13:23:57;6.40;;;1.30;;
37859;SDS011;23698;52.014;5.190;2023-04-25T13:26:45;4.55;;;0.95;;
37859;SDS011;23698;52.014;5.190;2023-04-25T13:29:31;6.38;;;1.00;;
37859;SDS011;23698;52.014;5.190;2023-04-25T13:32:19;5.32;;;1.10;;
37859;SDS011;23698;52.014;5.190;2023-04-25T13:35:06;4.20;;;0.70;;
37859;SDS011;23698;52.014;5.190;2023-04-25T13:37:55;3.55;;;1.27;;
37859;SDS011;23698;52.014;5.190;2023-04-25T13:40:42;4.70;;;0.73;;
37859;SDS011;23698;52.014;5.190;2023-04-25T13:43:29;3.38;;;0.80;;
37859;SDS011;23698;52.014;5.190;2023-04-25T13:46:19;4.82;;;0.93;;
37859;SDS011;23698;52.014;5.190;2023-04-25T13:49:25;4.63;;;1.17;;
37859;SDS011;23698;52.014;5.190;2023-04-25T13:52:11;4.70;;;1.17;;
37859;SDS011;23698;52.014;5.190;2023-04-25T13:54:58;5.97;;;1.25;;
37859;SDS011;23698;52.014;5.190;2023-04-25T13:57:45;4.72;;;1.00;;
37859;SDS011;23698;52.014;5.190;2023-04-25T14:00:37;5.55;;;1.25;;
37859;SDS011;23698;52.014;5.190;2023-04-25T14:03:25;5.53;;;1.23;;
37859;SDS011;23698;52.014;5.190;2023-04-25T14:06:12;4.20;;;1.20;;
37859;SDS011;23698;52.014;5.190;2023-04-25T14:08:58;2.67;;;0.98;;
37859;SDS011;23698;52.014;5.190;2023-04-25T14:11:46;3.67;;;1.00;;
37859;SDS011;23698;52.014;5.190;2023-04-25T14:14:32;6.93;;;1.10;;
37859;SDS011;23698;52.014;5.190;2023-04-25T14:17:20;7.97;;;1.30;;
37859;SDS011;23698;52.014;5.190;2023-04-25T14:20:08;8.25;;;1.40;;
37859;SDS011;23698;52.014;5.190;2023-04-25T14:22:55;4.05;;;1.50;;
37859;SDS011;23698;52.014;5.190;2023-04-25T14:25:43;9.40;;;1.63;;
37859;SDS011;23698;52.014;5.190;2023-04-25T14:28:29;6.32;;;1.60;;
37859;SDS011;23698;52.014;5.190;2023-04-25T14:31:16;2.97;;;1.00;;
37859;SDS011;23698;52.014;5.190;2023-04-25T14:34:03;4.45;;;1.05;;
37859;SDS011;23698;52.014;5.190;2023-04-25T14:36:51;6.90;;;1.70;;
37859;SDS011;23698;52.014;5.190;2023-04-25T14:39:38;7.55;;;1.40;;
37859;SDS011;23698;52.014;5.190;2023-04-25T14:42:25;5.68;;;1.55;;
37859;SDS011;23698;52.014;5.190;2023-04-25T14:45:11;4.32;;;1.33;;
37859;SDS011;23698;52.014;5.190;2023-04-25T14:47:58;3.95;;;0.90;;
37859;SDS011;23698;52.014;5.190;2023-04-25T14:50:46;8.73;;;1.40;;
37859;SDS011;23698;52.014;5.190;2023-04-25T14:53:33;6.82;;;1.00;;
37859;SDS011;23698;52.014;5.190;2023-04-25T14:56:19;4.82;;;1.17;;
37859;SDS011;23698;52.014;5.190;2023-04-25T14:59:06;8.73;;;1.42;;
37859;SDS011;23698;52.014;5.190;2023-04-25T15:01:52;8.93;;;1.42;;
37859;SDS011;23698;52.014;5.190;2023-04-25T15:04:42;11.68;;;1.13;;
37859;SDS011;23698;52.014;5.190;2023-04-25T15:07:30;4.07;;;1.20;;
37859;SDS011;23698;52.014;5.190;2023-04-25T15:10:16;5.55;;;1.30;;
37859;SDS011;23698;52.014;5.190;2023-04-25T15:13:03;6.82;;;1.15;;
37859;SDS011;23698;52.014;5.190;2023-04-25T15:15:50;6.68;;;1.38;;
37859;SDS011;23698;52.014;5.190;2023-04-25T15:18:38;7.72;;;1.35;;
37859;SDS011;23698;52.014;5.190;2023-04-25T15:21:25;5.18;;;1.10;;
37859;SDS011;23698;52.014;5.190;2023-04-25T15:24:13;5.22;;;1.13;;
37859;SDS011;23698;52.014;5.190;2023-04-25T15:27:01;7.13;;;1.42;;
37859;SDS011;23698;52.014;5.190;2023-04-25T15:29:47;6.97;;;1.20;;
37859;SDS011;23698;52.014;5.190;2023-04-25T15:32:34;4.47;;;1.15;;
37859;SDS011;23698;52.014;5.190;2023-04-25T15:35:20;9.40;;;1.70;;
37859;SDS011;23698;52.014;5.190;2023-04-25T15:38:07;6.82;;;1.80;;
37859;SDS011;23698;52.014;5.190;2023-04-25T15:40:59;10.40;;;1.27;;
37859;SDS011;23698;52.014;5.190;2023-04-25T15:43:47;7.32;;;1.67;;
37859;SDS011;23698;52.014;5.190;2023-04-25T15:46:34;8.27;;;1.67;;
37859;SDS011;23698;52.014;5.190;2023-04-25T15:49:20;7.28;;;1.48;;
37859;SDS011;23698;52.014;5.190;2023-04-25T15:52:06;6.03;;;1.38;;
37859;SDS011;23698;52.014;5.190;2023-04-25T15:54:53;7.18;;;1.20;;
37859;SDS011;23698;52.014;5.190;2023-04-25T15:57:41;5.53;;;1.48;;
37859;SDS011;23698;52.014;5.190;2023-04-25T16:00:30;7.68;;;1.40;;
37859;SDS011;23698;52.014;5.190;2023-04-25T16:03:20;11.45;;;1.40;;
37859;SDS011;23698;52.014;5.190;2023-04-25T16:06:08;4.72;;;1.40;;
37859;SDS011;23698;52.014;5.190;2023-04-25T16:08:54;6.28;;;1.30;;
37859;SDS011;23698;52.014;5.190;2023-04-25T16:11:41;7.55;;;1.27;;
37859;SDS011;23698;52.014;5.190;2023-04-25T16:14:30;4.85;;;1.70;;
37859;SDS011;23698;52.014;5.190;2023-04-25T16:17:21;8.55;;;1.50;;
37859;SDS011;23698;52.014;5.190;2023-04-25T16:20:08;8.60;;;1.63;;
37859;SDS011;23698;52.014;5.190;2023-04-25T16:22:57;10.75;;;1.52;;
37859;SDS011;23698;52.014;5.190;2023-04-25T16:25:46;6.20;;;1.23;;
37859;SDS011;23698;52.014;5.190;2023-04-25T16:28:34;2.85;;;0.95;;
37859;SDS011;23698;52.014;5.190;2023-04-25T16:31:21;4.60;;;1.15;;
37859;SDS011;23698;52.014;5.190;2023-04-25T16:34:08;3.33;;;0.60;;
37859;SDS011;23698;52.014;5.190;2023-04-25T16:36:54;5.13;;;0.82;;
37859;SDS011;23698;52.014;5.190;2023-04-25T16:39:41;3.60;;;1.05;;
37859;SDS011;23698;52.014;5.190;2023-04-25T16:42:28;2.70;;;1.17;;
37859;SDS011;23698;52.014;5.190;2023-04-25T16:45:14;4.70;;;1.10;;
37859;SDS011;23698;52.014;5.190;2023-04-25T16:48:05;3.10;;;1.20;;
37859;SDS011;23698;52.014;5.190;2023-04-25T16:50:51;6.57;;;0.80;;
37859;SDS011;23698;52.014;5.190;2023-04-25T16:53:38;5.32;;;1.40;;
37859;SDS011;23698;52.014;5.190;2023-04-25T16:56:25;7.47;;;1.02;;
37859;SDS011;23698;52.014;5.190;2023-04-25T16:59:12;7.25;;;1.17;;